createdAt,value
2017-07-05T00:00:09.934Z,0
2017-07-05T00:01:10.622Z,0
2017-07-05T00:02:11.319Z,0
2017-07-05T00:03:12.261Z,0
2017-07-05T00:04:12.944Z,0
2017-07-05T00:05:13.640Z,0
2017-07-05T00:06:14.331Z,0
2017-07-05T00:07:15.028Z,0
2017-07-05T00:08:15.969Z,0
2017-07-05T00:09:16.659Z,0
2017-07-05T00:10:17.352Z,0
2017-07-05T00:11:18.043Z,0
2017-07-05T00:12:18.736Z,0
2017-07-05T00:13:19.672Z,0
2017-07-05T00:14:20.366Z,0
2017-07-05T00:15:21.048Z,0
2017-07-05T00:16:21.742Z,0
2017-07-05T00:17:22.426Z,0
2017-07-05T00:18:23.366Z,0
2017-07-05T00:19:24.054Z,0
2017-07-05T00:20:24.742Z,0
2017-07-05T00:21:25.427Z,0
2017-07-05T00:22:26.114Z,0
2017-07-05T00:23:27.048Z,0
2017-07-05T00:24:27.734Z,0
2017-07-05T00:25:28.429Z,0
2017-07-05T00:26:29.121Z,0
2017-07-05T00:27:29.812Z,0
2017-07-05T00:28:30.748Z,0
2017-07-05T00:29:31.437Z,0
2017-07-05T00:30:32.123Z,0
2017-07-05T00:31:32.811Z,0
2017-07-05T00:32:33.497Z,0
2017-07-05T00:33:34.434Z,0
2017-07-05T00:34:35.122Z,0
2017-07-05T00:35:35.810Z,0
2017-07-05T00:36:36.503Z,0
2017-07-05T00:37:37.185Z,0
2017-07-05T00:38:38.123Z,0
2017-07-05T00:39:38.812Z,0
2017-07-05T00:40:39.498Z,0
2017-07-05T00:41:40.189Z,0
2017-07-05T00:42:40.879Z,0
2017-07-05T00:43:41.822Z,0
2017-07-05T00:44:42.511Z,0
2017-07-05T00:45:43.198Z,0
2017-07-05T00:46:43.887Z,0
2017-07-05T00:47:44.573Z,0
2017-07-05T00:48:45.513Z,0
2017-07-05T00:49:46.204Z,0
2017-07-05T00:50:46.892Z,0
2017-07-05T00:51:47.579Z,0
2017-07-05T00:52:48.270Z,0
2017-07-05T00:53:49.212Z,0
2017-07-05T00:54:49.903Z,0
2017-07-05T00:55:50.595Z,0
2017-07-05T00:56:51.286Z,0
2017-07-05T00:57:51.977Z,0
2017-07-05T00:58:52.916Z,0
2017-07-05T00:59:53.606Z,0
2017-07-05T01:00:54.294Z,0
2017-07-05T01:01:54.981Z,0
2017-07-05T01:02:55.668Z,0
2017-07-05T01:03:56.608Z,0
2017-07-05T01:04:57.294Z,0
2017-07-05T01:05:57.984Z,0
2017-07-05T01:06:58.675Z,0
2017-07-05T01:07:59.361Z,0
2017-07-05T01:09:00.300Z,0
2017-07-05T01:10:00.990Z,0
2017-07-05T01:11:01.677Z,0
2017-07-05T01:12:02.363Z,0
2017-07-05T01:13:03.049Z,0
2017-07-05T01:14:03.988Z,0
2017-07-05T01:15:04.674Z,0
2017-07-05T01:16:05.360Z,0
2017-07-05T01:17:06.046Z,0
2017-07-05T01:18:06.740Z,0
2017-07-05T01:19:07.678Z,0
2017-07-05T01:20:08.365Z,0
2017-07-05T01:21:09.050Z,0
2017-07-05T01:22:09.733Z,0
2017-07-05T01:23:10.423Z,0
2017-07-05T01:24:11.362Z,0
2017-07-05T01:25:12.047Z,0
2017-07-05T01:26:12.734Z,0
2017-07-05T01:27:13.418Z,0
2017-07-05T01:28:14.111Z,0
2017-07-05T01:29:15.042Z,0
2017-07-05T01:30:15.729Z,0
2017-07-05T01:31:16.421Z,0
2017-07-05T01:32:17.108Z,0
2017-07-05T01:33:17.793Z,0
2017-07-05T01:34:18.736Z,0
2017-07-05T01:35:19.418Z,0
2017-07-05T01:36:20.106Z,0
2017-07-05T01:37:20.799Z,0
2017-07-05T01:38:21.483Z,0
2017-07-05T01:39:22.419Z,0
2017-07-05T01:40:23.106Z,0
2017-07-05T01:41:23.793Z,0
2017-07-05T01:42:24.484Z,0
2017-07-05T01:43:25.171Z,0
2017-07-05T01:44:26.109Z,0
2017-07-05T01:45:26.796Z,0
2017-07-05T01:46:27.487Z,0
2017-07-05T01:47:28.178Z,0
2017-07-05T01:48:28.871Z,0
2017-07-05T01:49:29.813Z,0
2017-07-05T01:50:30.498Z,0
2017-07-05T01:51:31.189Z,0
2017-07-05T01:52:31.873Z,0
2017-07-05T01:53:32.561Z,0
2017-07-05T01:54:33.502Z,0
2017-07-05T01:55:34.190Z,0
2017-07-05T01:56:34.875Z,0
2017-07-05T01:57:35.563Z,0
2017-07-05T01:58:36.248Z,0
2017-07-05T01:59:37.191Z,0
2017-07-05T02:00:37.879Z,0
2017-07-05T02:01:38.565Z,0
2017-07-05T02:02:39.251Z,0
2017-07-05T02:03:39.941Z,0
2017-07-05T02:04:40.888Z,0
2017-07-05T02:05:41.576Z,0
2017-07-05T02:06:42.265Z,0
2017-07-05T02:07:42.952Z,0
2017-07-05T02:08:43.638Z,0
2017-07-05T02:09:44.576Z,0
2017-07-05T02:10:45.265Z,0
2017-07-05T02:11:45.954Z,0
2017-07-05T02:12:46.646Z,0
2017-07-05T02:13:47.339Z,0
2017-07-05T02:14:48.280Z,0
2017-07-05T02:15:48.968Z,0
2017-07-05T02:16:49.655Z,0
2017-07-05T02:17:50.348Z,0
2017-07-05T02:18:51.038Z,0
2017-07-05T02:19:51.986Z,0
2017-07-05T02:20:52.664Z,0
2017-07-05T02:21:53.357Z,0
2017-07-05T02:22:54.044Z,0
2017-07-05T02:23:54.729Z,0
2017-07-05T02:24:55.669Z,0
2017-07-05T02:25:56.354Z,0
2017-07-05T02:26:57.040Z,0
2017-07-05T02:27:57.727Z,0
2017-07-05T02:28:58.417Z,0
2017-07-05T02:29:59.350Z,0
2017-07-05T02:31:00.039Z,0
2017-07-05T02:32:00.727Z,0
2017-07-05T02:33:01.412Z,0
2017-07-05T02:34:02.099Z,0
2017-07-05T02:35:03.039Z,0
2017-07-05T02:36:03.724Z,0
2017-07-05T02:37:04.407Z,0
2017-07-05T02:38:05.091Z,0
2017-07-05T02:39:05.776Z,0
2017-07-05T02:40:06.716Z,0
2017-07-05T02:41:07.403Z,0
2017-07-05T02:42:08.088Z,0
2017-07-05T02:43:08.774Z,0
2017-07-05T02:44:09.463Z,0
2017-07-05T02:45:10.154Z,0
2017-07-05T02:46:10.840Z,0
2017-07-05T02:47:11.531Z,0
2017-07-05T02:48:12.223Z,0
2017-07-05T02:49:12.909Z,0
2017-07-05T02:50:13.848Z,0
2017-07-05T02:51:14.545Z,4
2017-07-05T02:52:15.245Z,4
2017-07-05T02:53:15.932Z,4
2017-07-05T02:54:16.620Z,0
2017-07-05T02:55:17.559Z,4
2017-07-05T02:56:18.249Z,4
2017-07-05T02:57:18.934Z,8
2017-07-05T02:58:19.630Z,4
2017-07-05T02:59:20.320Z,8
2017-07-05T03:00:21.254Z,8
2017-07-05T03:01:21.939Z,8
2017-07-05T03:02:22.629Z,8
2017-07-05T03:03:23.319Z,12
2017-07-05T03:04:24.006Z,16
2017-07-05T03:05:24.942Z,16
2017-07-05T03:06:25.631Z,20
2017-07-05T03:07:26.316Z,20
2017-07-05T03:08:27.004Z,24
2017-07-05T03:09:27.691Z,24
2017-07-05T03:10:28.629Z,28
2017-07-05T03:11:29.318Z,32
2017-07-05T03:12:30.006Z,36
2017-07-05T03:13:30.694Z,36
2017-07-05T03:14:31.386Z,44
2017-07-05T03:15:32.322Z,44
2017-07-05T03:16:33.016Z,52
2017-07-05T03:17:33.707Z,60
2017-07-05T03:18:34.398Z,64
2017-07-05T03:19:35.085Z,68
2017-07-05T03:20:36.021Z,80
2017-07-05T03:21:36.714Z,84
2017-07-05T03:22:37.405Z,92
2017-07-05T03:23:38.094Z,100
2017-07-05T03:24:38.783Z,108
2017-07-05T03:25:39.721Z,120
2017-07-05T03:26:40.408Z,128
2017-07-05T03:27:41.094Z,140
2017-07-05T03:28:41.779Z,152
2017-07-05T03:29:42.470Z,164
2017-07-05T03:30:43.411Z,176
2017-07-05T03:31:44.108Z,188
2017-07-05T03:32:44.802Z,200
2017-07-05T03:33:45.482Z,216
2017-07-05T03:34:46.171Z,228
2017-07-05T03:35:47.113Z,244
2017-07-05T03:36:47.803Z,260
2017-07-05T03:37:48.490Z,276
2017-07-05T03:38:49.188Z,292
2017-07-05T03:39:49.877Z,308
2017-07-05T03:40:50.820Z,320
2017-07-05T03:41:51.510Z,336
2017-07-05T03:42:52.198Z,352
2017-07-05T03:43:52.889Z,364
2017-07-05T03:44:53.579Z,376
2017-07-05T03:45:54.526Z,388
2017-07-05T03:46:55.212Z,400
2017-07-05T03:47:55.903Z,416
2017-07-05T03:48:56.592Z,428
2017-07-05T03:49:57.285Z,440
2017-07-05T03:50:58.224Z,456
2017-07-05T03:51:58.917Z,468
2017-07-05T03:52:59.602Z,480
2017-07-05T03:54:00.285Z,496
2017-07-05T03:55:00.977Z,512
2017-07-05T03:56:01.918Z,520
2017-07-05T03:57:02.610Z,536
2017-07-05T03:58:03.302Z,548
2017-07-05T03:59:03.995Z,564
2017-07-05T04:00:04.689Z,580
2017-07-05T04:01:05.630Z,592
2017-07-05T04:02:06.320Z,604
2017-07-05T04:03:07.007Z,620
2017-07-05T04:04:07.694Z,632
2017-07-05T04:05:08.385Z,644
2017-07-05T04:06:09.322Z,656
2017-07-05T04:07:10.009Z,672
2017-07-05T04:08:10.701Z,680
2017-07-05T04:09:11.392Z,696
2017-07-05T04:10:12.085Z,708
2017-07-05T04:11:12.773Z,720
2017-07-05T04:12:13.472Z,732
2017-07-05T04:13:14.165Z,744
2017-07-05T04:14:14.864Z,760
2017-07-05T04:15:15.556Z,772
2017-07-05T04:16:16.252Z,792
2017-07-05T04:17:16.938Z,800
2017-07-05T04:18:17.633Z,820
2017-07-05T04:19:18.325Z,836
2017-07-05T04:20:19.014Z,844
2017-07-05T04:21:19.954Z,848
2017-07-05T04:22:20.640Z,856
2017-07-05T04:23:21.329Z,864
2017-07-05T04:24:22.020Z,876
2017-07-05T04:25:22.712Z,884
2017-07-05T04:26:23.655Z,896
2017-07-05T04:27:24.347Z,900
2017-07-05T04:28:25.040Z,908
2017-07-05T04:29:25.729Z,912
2017-07-05T04:30:26.421Z,924
2017-07-05T04:31:27.361Z,916
2017-07-05T04:32:28.056Z,904
2017-07-05T04:33:28.746Z,916
2017-07-05T04:34:29.450Z,1112
2017-07-05T04:35:30.142Z,1144
2017-07-05T04:36:31.085Z,1152
2017-07-05T04:37:31.775Z,1160
2017-07-05T04:38:32.466Z,1168
2017-07-05T04:39:33.159Z,1148
2017-07-05T04:40:33.851Z,1168
2017-07-05T04:41:34.795Z,1208
2017-07-05T04:42:35.486Z,1208
2017-07-05T04:43:36.176Z,1216
2017-07-05T04:44:36.870Z,1224
2017-07-05T04:45:37.563Z,1232
2017-07-05T04:46:38.506Z,1252
2017-07-05T04:47:39.203Z,1264
2017-07-05T04:48:39.891Z,1280
2017-07-05T04:49:40.581Z,1288
2017-07-05T04:50:41.268Z,1296
2017-07-05T04:51:42.211Z,1308
2017-07-05T04:52:42.907Z,1320
2017-07-05T04:53:43.599Z,1320
2017-07-05T04:54:44.287Z,1324
2017-07-05T04:55:44.974Z,1332
2017-07-05T04:56:45.913Z,1344
2017-07-05T04:57:46.603Z,1300
2017-07-05T04:58:47.293Z,1312
2017-07-05T04:59:47.989Z,1312
2017-07-05T05:00:48.676Z,1316
2017-07-05T05:01:49.615Z,1320
2017-07-05T05:02:50.305Z,1312
2017-07-05T05:03:50.994Z,1292
2017-07-05T05:04:51.685Z,1260
2017-07-05T05:05:52.377Z,1300
2017-07-05T05:06:53.321Z,1364
2017-07-05T05:07:54.013Z,1368
2017-07-05T05:08:54.709Z,1376
2017-07-05T05:09:55.396Z,1376
2017-07-05T05:10:56.086Z,1376
2017-07-05T05:11:57.026Z,1388
2017-07-05T05:12:57.716Z,1396
2017-07-05T05:13:58.406Z,1400
2017-07-05T05:14:59.103Z,1404
2017-07-05T05:15:59.796Z,1412
2017-07-05T05:17:00.738Z,1416
2017-07-05T05:18:01.430Z,1460
2017-07-05T05:19:02.121Z,1460
2017-07-05T05:20:02.815Z,1468
2017-07-05T05:21:03.504Z,1476
2017-07-05T05:22:04.453Z,1480
2017-07-05T05:23:05.144Z,1484
2017-07-05T05:24:05.836Z,1496
2017-07-05T05:25:06.525Z,1508
2017-07-05T05:26:07.213Z,1512
2017-07-05T05:27:08.158Z,1516
2017-07-05T05:28:08.845Z,1520
2017-07-05T05:29:09.535Z,1528
2017-07-05T05:30:10.227Z,1532
2017-07-05T05:31:10.917Z,1536
2017-07-05T05:32:11.875Z,1540
2017-07-05T05:33:12.567Z,1500
2017-07-05T05:34:13.260Z,1552
2017-07-05T05:35:13.951Z,1556
2017-07-05T05:36:14.637Z,1560
2017-07-05T05:37:15.584Z,1560
2017-07-05T05:38:16.279Z,1568
2017-07-05T05:39:16.970Z,1572
2017-07-05T05:40:17.665Z,1580
2017-07-05T05:41:18.351Z,1592
2017-07-05T05:42:19.039Z,1596
2017-07-05T05:43:19.733Z,1604
2017-07-05T05:44:20.423Z,1608
2017-07-05T05:45:21.119Z,1608
2017-07-05T05:46:21.810Z,1612
2017-07-05T05:47:22.754Z,1616
2017-07-05T05:48:23.444Z,1620
2017-07-05T05:49:24.138Z,1624
2017-07-05T05:50:24.829Z,1628
2017-07-05T05:51:25.519Z,1628
2017-07-05T05:52:26.463Z,1636
2017-07-05T05:53:27.166Z,1640
2017-07-05T05:54:27.863Z,1644
2017-07-05T05:55:28.554Z,1648
2017-07-05T05:56:29.244Z,1648
2017-07-05T05:57:30.194Z,1648
2017-07-05T05:58:30.887Z,1648
2017-07-05T05:59:31.579Z,1648
2017-07-05T06:00:32.273Z,1656
2017-07-05T06:01:32.970Z,1664
2017-07-05T06:02:33.916Z,1664
2017-07-05T06:03:34.607Z,1668
2017-07-05T06:04:35.298Z,1668
2017-07-05T06:05:35.987Z,1676
2017-07-05T06:06:36.678Z,1676
2017-07-05T06:07:37.620Z,1676
2017-07-05T06:08:38.313Z,1684
2017-07-05T06:09:39.006Z,1684
2017-07-05T06:10:39.701Z,1684
2017-07-05T06:11:40.392Z,1688
2017-07-05T06:12:41.333Z,1688
2017-07-05T06:13:42.022Z,1692
2017-07-05T06:14:42.713Z,1696
2017-07-05T06:15:43.403Z,1708
2017-07-05T06:16:44.098Z,1708
2017-07-05T06:17:45.039Z,1704
2017-07-05T06:18:45.732Z,1712
2017-07-05T06:19:46.422Z,1716
2017-07-05T06:20:47.114Z,1720
2017-07-05T06:21:47.811Z,1720
2017-07-05T06:22:48.759Z,1728
2017-07-05T06:23:49.441Z,1732
2017-07-05T06:24:50.131Z,1732
2017-07-05T06:25:50.826Z,1736
2017-07-05T06:26:51.520Z,1740
2017-07-05T06:27:52.212Z,1740
2017-07-05T06:28:52.904Z,1748
2017-07-05T06:29:53.593Z,1748
2017-07-05T06:30:54.283Z,1752
2017-07-05T06:31:54.988Z,1752
2017-07-05T06:32:55.929Z,1756
2017-07-05T06:33:56.620Z,1760
2017-07-05T06:34:57.321Z,1768
2017-07-05T06:35:58.005Z,1768
2017-07-05T06:36:58.697Z,1772
2017-07-05T06:37:59.641Z,1776
2017-07-05T06:39:00.330Z,1780
2017-07-05T06:40:01.023Z,1788
2017-07-05T06:41:01.713Z,1788
2017-07-05T06:42:02.413Z,1796
2017-07-05T06:43:03.356Z,1800
2017-07-05T06:44:04.049Z,1800
2017-07-05T06:45:04.739Z,1804
2017-07-05T06:46:05.432Z,1812
2017-07-05T06:47:06.125Z,1812
2017-07-05T06:48:07.064Z,1820
2017-07-05T06:49:07.754Z,1824
2017-07-05T06:50:08.449Z,1820
2017-07-05T06:51:09.139Z,1832
2017-07-05T06:52:09.838Z,1832
2017-07-05T06:53:10.779Z,1840
2017-07-05T06:54:11.469Z,1844
2017-07-05T06:55:12.164Z,1848
2017-07-05T06:56:12.862Z,1848
2017-07-05T06:57:13.552Z,1856
2017-07-05T06:58:14.495Z,1860
2017-07-05T06:59:15.185Z,1868
2017-07-05T07:00:15.887Z,1868
2017-07-05T07:01:16.582Z,1876
2017-07-05T07:02:17.275Z,1876
2017-07-05T07:03:18.224Z,1880
2017-07-05T07:04:18.923Z,1884
2017-07-05T07:05:19.618Z,1892
2017-07-05T07:06:20.308Z,1892
2017-07-05T07:07:21.002Z,1900
2017-07-05T07:08:21.947Z,1904
2017-07-05T07:09:22.638Z,1912
2017-07-05T07:10:23.338Z,1916
2017-07-05T07:11:24.028Z,1920
2017-07-05T07:12:24.730Z,1928
2017-07-05T07:13:25.423Z,1932
2017-07-05T07:14:26.114Z,1940
2017-07-05T07:15:26.810Z,1940
2017-07-05T07:16:27.503Z,1948
2017-07-05T07:17:28.202Z,1952
2017-07-05T07:18:29.147Z,1960
2017-07-05T07:19:29.836Z,1960
2017-07-05T07:20:30.529Z,1964
2017-07-05T07:21:31.227Z,1968
2017-07-05T07:22:31.929Z,1976
2017-07-05T07:23:32.873Z,1980
2017-07-05T07:24:33.580Z,1984
2017-07-05T07:25:34.273Z,1988
2017-07-05T07:26:34.966Z,1992
2017-07-05T07:27:35.659Z,1992
2017-07-05T07:28:36.605Z,1992
2017-07-05T07:29:37.304Z,1996
2017-07-05T07:30:37.995Z,1996
2017-07-05T07:31:38.690Z,2000
2017-07-05T07:32:39.389Z,2008
2017-07-05T07:33:40.332Z,2008
2017-07-05T07:34:41.025Z,2012
2017-07-05T07:35:41.727Z,2012
2017-07-05T07:36:42.428Z,2012
2017-07-05T07:37:43.120Z,2020
2017-07-05T07:38:44.061Z,2020
2017-07-05T07:39:44.757Z,2020
2017-07-05T07:40:45.455Z,2024
2017-07-05T07:41:46.151Z,2024
2017-07-05T07:42:46.840Z,2028
2017-07-05T07:43:47.788Z,2036
2017-07-05T07:44:48.486Z,2040
2017-07-05T07:45:49.185Z,2044
2017-07-05T07:46:49.891Z,2048
2017-07-05T07:47:50.588Z,2052
2017-07-05T07:48:51.537Z,2060
2017-07-05T07:49:52.225Z,2056
2017-07-05T07:50:52.919Z,2064
2017-07-05T07:51:53.609Z,2068
2017-07-05T07:52:54.300Z,2072
2017-07-05T07:53:55.247Z,2080
2017-07-05T07:54:55.945Z,2080
2017-07-05T07:55:56.643Z,2088
2017-07-05T07:56:57.338Z,2092
2017-07-05T07:57:58.035Z,2096
2017-07-05T07:58:58.726Z,2104
2017-07-05T07:59:59.423Z,2108
2017-07-05T08:01:00.119Z,2112
2017-07-05T08:02:00.815Z,2112
2017-07-05T08:03:01.515Z,2120
2017-07-05T08:04:02.464Z,2128
2017-07-05T08:05:03.164Z,2132
2017-07-05T08:06:03.858Z,2140
2017-07-05T08:07:04.554Z,2140
2017-07-05T08:08:05.254Z,2144
2017-07-05T08:09:06.200Z,2152
2017-07-05T08:10:06.897Z,2156
2017-07-05T08:11:07.596Z,2160
2017-07-05T08:12:08.291Z,2160
2017-07-05T08:13:08.982Z,2164
2017-07-05T08:14:09.926Z,2176
2017-07-05T08:15:10.620Z,2180
2017-07-05T08:16:11.313Z,2188
2017-07-05T08:17:12.009Z,2192
2017-07-05T08:18:12.706Z,2200
2017-07-05T08:19:13.651Z,2208
2017-07-05T08:20:14.349Z,2212
2017-07-05T08:21:15.040Z,2216
2017-07-05T08:22:15.732Z,2228
2017-07-05T08:23:16.429Z,2232
2017-07-05T08:24:17.374Z,2236
2017-07-05T08:25:18.074Z,2244
2017-07-05T08:26:18.769Z,2248
2017-07-05T08:27:19.466Z,2256
2017-07-05T08:28:20.164Z,2260
2017-07-05T08:29:21.106Z,2268
2017-07-05T08:30:21.805Z,2276
2017-07-05T08:31:22.505Z,2288
2017-07-05T08:32:23.209Z,2292
2017-07-05T08:33:23.904Z,2304
2017-07-05T08:34:24.852Z,2312
2017-07-05T08:35:25.546Z,2320
2017-07-05T08:36:26.244Z,2328
2017-07-05T08:37:26.937Z,2332
2017-07-05T08:38:27.631Z,2340
2017-07-05T08:39:28.580Z,2352
2017-07-05T08:40:29.277Z,2352
2017-07-05T08:41:29.977Z,2356
2017-07-05T08:42:30.668Z,2364
2017-07-05T08:43:31.361Z,2376
2017-07-05T08:44:32.060Z,2384
2017-07-05T08:45:32.754Z,2396
2017-07-05T08:46:33.450Z,2400
2017-07-05T08:47:34.151Z,2404
2017-07-05T08:48:34.846Z,2412
2017-07-05T08:49:35.798Z,2428
2017-07-05T08:50:36.491Z,2428
2017-07-05T08:51:37.185Z,2436
2017-07-05T08:52:37.880Z,2452
2017-07-05T08:53:38.576Z,2468
2017-07-05T08:54:39.534Z,2476
2017-07-05T08:55:40.231Z,2488
2017-07-05T08:56:40.934Z,2500
2017-07-05T08:57:41.630Z,2504
2017-07-05T08:58:42.325Z,2508
2017-07-05T08:59:43.274Z,2520
2017-07-05T09:00:43.969Z,2532
2017-07-05T09:01:44.663Z,2536
2017-07-05T09:02:45.366Z,2548
2017-07-05T09:03:46.061Z,2552
2017-07-05T09:04:46.759Z,2572
2017-07-05T09:05:47.467Z,2584
2017-07-05T09:06:48.164Z,2588
2017-07-05T09:07:48.871Z,2596
2017-07-05T09:08:49.569Z,2604
2017-07-05T09:09:50.508Z,2612
2017-07-05T09:10:51.191Z,2628
2017-07-05T09:11:51.902Z,2644
2017-07-05T09:12:52.597Z,2664
2017-07-05T09:13:53.294Z,2668
2017-07-05T09:14:54.241Z,2676
2017-07-05T09:15:54.938Z,2692
2017-07-05T09:16:55.631Z,2700
2017-07-05T09:17:56.326Z,2716
2017-07-05T09:18:57.022Z,2724
2017-07-05T09:19:57.969Z,2728
2017-07-05T09:20:58.665Z,2744
2017-07-05T09:21:59.365Z,2768
2017-07-05T09:23:00.064Z,2788
2017-07-05T09:24:00.767Z,2800
2017-07-05T09:25:01.725Z,2820
2017-07-05T09:26:02.426Z,2832
2017-07-05T09:27:03.121Z,2840
2017-07-05T09:28:03.818Z,2856
2017-07-05T09:29:04.512Z,2868
2017-07-05T09:30:05.223Z,2892
2017-07-05T09:31:05.919Z,2932
2017-07-05T09:32:06.615Z,3016
2017-07-05T09:33:07.230Z,3088
2017-07-05T09:34:08.012Z,3144
2017-07-05T09:35:08.962Z,3128
2017-07-05T09:36:09.659Z,3108
2017-07-05T09:37:10.356Z,3120
2017-07-05T09:38:11.050Z,3128
2017-07-05T09:39:11.753Z,3184
2017-07-05T09:40:12.702Z,3160
2017-07-05T09:41:13.396Z,3156
2017-07-05T09:42:14.094Z,3184
2017-07-05T09:43:14.794Z,3260
2017-07-05T09:44:15.489Z,3408
2017-07-05T09:45:16.435Z,3504
2017-07-05T09:46:17.132Z,3572
2017-07-05T09:47:17.829Z,3632
2017-07-05T09:48:18.526Z,3648
2017-07-05T09:49:19.230Z,3548
2017-07-05T09:50:20.174Z,3472
2017-07-05T09:51:20.872Z,3432
2017-07-05T09:52:21.567Z,3384
2017-07-05T09:53:22.271Z,3420
2017-07-05T09:54:22.967Z,3452
2017-07-05T09:55:23.914Z,3628
2017-07-05T09:56:24.628Z,3856
2017-07-05T09:57:25.326Z,3848
2017-07-05T09:58:26.025Z,4008
2017-07-05T09:59:26.783Z,4168
2017-07-05T10:00:27.428Z,4124
2017-07-05T10:01:28.135Z,4408
2017-07-05T10:02:28.754Z,4940
2017-07-05T10:03:29.510Z,5164
2017-07-05T10:04:30.211Z,5548
2017-07-05T10:05:31.158Z,5868
2017-07-05T10:06:31.853Z,6068
2017-07-05T10:07:32.553Z,5748
2017-07-05T10:08:33.254Z,4688
2017-07-05T10:09:33.961Z,4992
2017-07-05T10:10:34.914Z,4872
2017-07-05T10:11:35.608Z,5016
2017-07-05T10:12:36.311Z,5632
2017-07-05T10:13:37.007Z,6148
2017-07-05T10:14:37.705Z,6492
2017-07-05T10:15:38.403Z,6252
2017-07-05T10:16:39.099Z,5808
2017-07-05T10:17:39.794Z,5752
2017-07-05T10:18:40.494Z,5928
2017-07-05T10:19:41.193Z,5804
2017-07-05T10:20:42.144Z,4416
2017-07-05T10:21:42.848Z,5004
2017-07-05T10:22:43.590Z,5976
2017-07-05T10:23:44.242Z,5924
2017-07-05T10:24:44.943Z,6028
2017-07-05T10:25:45.900Z,6356
2017-07-05T10:26:46.598Z,6480
2017-07-05T10:27:47.302Z,6692
2017-07-05T10:28:48.001Z,7144
2017-07-05T10:29:48.701Z,7340
2017-07-05T10:30:49.659Z,6660
2017-07-05T10:31:50.351Z,7996
2017-07-05T10:32:51.051Z,7988
2017-07-05T10:33:51.752Z,7288
2017-07-05T10:34:52.459Z,7536
2017-07-05T10:35:53.405Z,8036
2017-07-05T10:36:54.100Z,7864
2017-07-05T10:37:54.804Z,7616
2017-07-05T10:38:55.503Z,7896
2017-07-05T10:39:56.202Z,8252
2017-07-05T10:40:57.153Z,7776
2017-07-05T10:41:57.848Z,7464
2017-07-05T10:42:58.558Z,7264
2017-07-05T10:43:59.258Z,7804
2017-07-05T10:44:59.959Z,7588
2017-07-05T10:46:00.905Z,7532
2017-07-05T10:47:01.607Z,7632
2017-07-05T10:48:02.306Z,7668
2017-07-05T10:49:03.001Z,8132
2017-07-05T10:50:03.700Z,7712
2017-07-05T10:51:04.655Z,8012
2017-07-05T10:52:05.355Z,8096
2017-07-05T10:53:06.048Z,7792
2017-07-05T10:54:06.743Z,7436
2017-07-05T10:55:07.441Z,7240
2017-07-05T10:56:08.390Z,7364
2017-07-05T10:57:09.089Z,7144
2017-07-05T10:58:09.788Z,5856
2017-07-05T10:59:10.486Z,8104
2017-07-05T11:00:11.191Z,7860
2017-07-05T11:01:11.891Z,7852
2017-07-05T11:02:12.586Z,7572
2017-07-05T11:03:13.288Z,7316
2017-07-05T11:04:13.981Z,9148
2017-07-05T11:05:14.689Z,9056
2017-07-05T11:06:15.647Z,9368
2017-07-05T11:07:16.347Z,9788
2017-07-05T11:08:17.046Z,10448
2017-07-05T11:09:17.750Z,10188
2017-07-05T11:10:18.457Z,9236
2017-07-05T11:11:19.409Z,8520
2017-07-05T11:12:20.110Z,8276
2017-07-05T11:13:20.812Z,8396
2017-07-05T11:14:21.509Z,8812
2017-07-05T11:15:22.214Z,8020
2017-07-05T11:16:23.168Z,7080
2017-07-05T11:17:23.874Z,8244
2017-07-05T11:18:24.572Z,8452
2017-07-05T11:19:25.265Z,8332
2017-07-05T11:20:25.973Z,7952
2017-07-05T11:21:26.926Z,6556
2017-07-05T11:22:27.630Z,6692
2017-07-05T11:23:28.325Z,8196
2017-07-05T11:24:29.029Z,6184
2017-07-05T11:25:29.726Z,7220
2017-07-05T11:26:30.681Z,9836
2017-07-05T11:27:31.380Z,9456
2017-07-05T11:28:32.086Z,9448
2017-07-05T11:29:32.782Z,9568
2017-07-05T11:30:33.484Z,10068
2017-07-05T11:31:34.439Z,9932
2017-07-05T11:32:35.138Z,9356
2017-07-05T11:33:35.840Z,9276
2017-07-05T11:34:36.541Z,9348
2017-07-05T11:35:37.244Z,9432
2017-07-05T11:36:38.200Z,9440
2017-07-05T11:37:38.899Z,8500
2017-07-05T11:38:39.601Z,8440
2017-07-05T11:39:40.302Z,8804
2017-07-05T11:40:41.004Z,9088
2017-07-05T11:41:41.965Z,9544
2017-07-05T11:42:42.670Z,7420
2017-07-05T11:43:43.368Z,7808
2017-07-05T11:44:44.070Z,8232
2017-07-05T11:45:44.772Z,7412
2017-07-05T11:46:45.625Z,7424
2017-07-05T11:47:46.327Z,8668
2017-07-05T11:48:47.027Z,8460
2017-07-05T11:49:47.724Z,4864
2017-07-05T11:50:48.425Z,4760
2017-07-05T11:51:49.381Z,4592
2017-07-05T11:52:50.094Z,4772
2017-07-05T11:53:50.800Z,5044
2017-07-05T11:54:51.500Z,5624
2017-07-05T11:55:52.200Z,6248
2017-07-05T11:56:53.154Z,7068
2017-07-05T11:57:53.867Z,8092
2017-07-05T11:58:54.567Z,9696
2017-07-05T11:59:55.272Z,11996
2017-07-05T12:00:55.977Z,11904
2017-07-05T12:01:56.925Z,11844
2017-07-05T12:02:57.625Z,12332
2017-07-05T12:03:58.331Z,12392
2017-07-05T12:04:59.031Z,9904
2017-07-05T12:05:59.731Z,12332
2017-07-05T12:07:00.683Z,11336
2017-07-05T12:08:01.383Z,11516
2017-07-05T12:09:02.093Z,11328
2017-07-05T12:10:02.800Z,11284
2017-07-05T12:11:03.499Z,11672
2017-07-05T12:12:04.460Z,12212
2017-07-05T12:13:05.163Z,12712
2017-07-05T12:14:05.863Z,9560
2017-07-05T12:15:06.565Z,12012
2017-07-05T12:16:07.261Z,10356
2017-07-05T12:17:07.962Z,11012
2017-07-05T12:18:08.673Z,8856
2017-07-05T12:19:09.373Z,8356
2017-07-05T12:20:10.076Z,8144
2017-07-05T12:21:10.782Z,11520
2017-07-05T12:22:11.743Z,11572
2017-07-05T12:23:12.450Z,7628
2017-07-05T12:24:13.149Z,7300
2017-07-05T12:25:13.854Z,7012
2017-07-05T12:26:14.558Z,6744
2017-07-05T12:27:15.258Z,6908
2017-07-05T12:28:15.958Z,6468
2017-07-05T12:29:16.657Z,6956
2017-07-05T12:30:17.353Z,6320
2017-07-05T12:31:18.055Z,6872
2017-07-05T12:32:19.008Z,7512
2017-07-05T12:33:19.706Z,8592
2017-07-05T12:34:20.411Z,9024
2017-07-05T12:35:21.114Z,12760
2017-07-05T12:36:21.816Z,12452
2017-07-05T12:37:22.768Z,11928
2017-07-05T12:38:23.470Z,11968
2017-07-05T12:39:24.172Z,12216
2017-07-05T12:40:24.873Z,12276
2017-07-05T12:41:25.576Z,12040
2017-07-05T12:42:26.535Z,9272
2017-07-05T12:43:27.238Z,8340
2017-07-05T12:44:27.942Z,12008
2017-07-05T12:45:28.647Z,12700
2017-07-05T12:46:29.344Z,12312
2017-07-05T12:47:30.301Z,12068
2017-07-05T12:48:31.008Z,12248
2017-07-05T12:49:31.715Z,12356
2017-07-05T12:50:32.432Z,11984
2017-07-05T12:51:33.134Z,11448
2017-07-05T12:52:34.238Z,11288
2017-07-05T12:53:34.941Z,10940
2017-07-05T12:54:35.643Z,11024
2017-07-05T12:55:36.345Z,10836
2017-07-05T12:56:37.057Z,10704
2017-07-05T12:57:38.009Z,10408
2017-07-05T12:58:38.711Z,10068
2017-07-05T12:59:39.410Z,9676
2017-07-05T13:00:40.117Z,9416
2017-07-05T13:01:40.817Z,9528
2017-07-05T13:02:41.768Z,9932
2017-07-05T13:03:42.475Z,10316
2017-07-05T13:04:43.174Z,10524
2017-07-05T13:05:43.883Z,10708
2017-07-05T13:06:44.594Z,11104
2017-07-05T13:07:45.546Z,11528
2017-07-05T13:08:46.247Z,12032
2017-07-05T13:09:46.947Z,12632
2017-07-05T13:10:47.653Z,12936
2017-07-05T13:11:48.361Z,13212
2017-07-05T13:12:49.415Z,12816
2017-07-05T13:13:50.116Z,12964
2017-07-05T13:14:50.815Z,9600
2017-07-05T13:15:51.524Z,9644
2017-07-05T13:16:52.212Z,9788
2017-07-05T13:17:53.162Z,10012
2017-07-05T13:18:53.866Z,11152
2017-07-05T13:19:54.568Z,14952
2017-07-05T13:20:55.274Z,11360
2017-07-05T13:21:55.980Z,11460
2017-07-05T13:22:56.937Z,13240
2017-07-05T13:23:57.639Z,12608
2017-07-05T13:24:58.346Z,12244
2017-07-05T13:25:59.053Z,12132
2017-07-05T13:26:59.753Z,11928
2017-07-05T13:28:00.713Z,11840
2017-07-05T13:29:01.421Z,11808
2017-07-05T13:30:02.120Z,11732
2017-07-05T13:31:02.834Z,11308
2017-07-05T13:32:03.538Z,11132
2017-07-05T13:33:04.497Z,10768
2017-07-05T13:34:05.208Z,10560
2017-07-05T13:35:05.910Z,10716
2017-07-05T13:36:06.622Z,11124
2017-07-05T13:37:07.322Z,11464
2017-07-05T13:38:08.285Z,11536
2017-07-05T13:39:08.987Z,11460
2017-07-05T13:40:09.694Z,11356
2017-07-05T13:41:10.393Z,11380
2017-07-05T13:42:11.101Z,11352
2017-07-05T13:43:12.054Z,11212
2017-07-05T13:44:12.751Z,11108
2017-07-05T13:45:13.454Z,11432
2017-07-05T13:46:14.154Z,11868
2017-07-05T13:47:14.857Z,12176